Kaylor, SD

11:00 PM CDT on September 01, 2014 (GMT -0500)
Tabor - Bares | Change Station
CLOSE
Current Station
Personal Weather Station
Location: Tabor, SD
Elevation: 1355 ft
Nearby Weather Stations

Elev 1355 ft 42.95 °N, 97.66 °W | Updated 3 seconds ago

Rain
Rain
58.6 °F
Feels Like 58.6 °F
N
6.9
Wind Variable Wind from NE
Gusts 7.0 mph

Today
High -- | Low -- °F
--% Chance of Precip.
Yesterday
High -- | Low -- °F
Precip. -- in
6:55 AM 8:06 PM
Waxing Crescent, 47% visible
Pressure 29.95 in
Visibility 10.0 miles
Clouds Few 3100 ft
Mostly Cloudy 4300 ft
Overcast 5000 ft
Dew Point 57 °F
Humidity 93%
Rainfall 0.20 in
Snow Depth Not available.
UV 0 out of 12
Pollen 7.80 out of 12
Air Quality Not available.
Flu Activity Not available.
METAR KYKN 020355Z AUTO 28008KT 10SM FEW031 BKN043 OVC050 15/13 A2995 RMK AO1 LTG DSNT SE P0003

More Conditions Fewer Conditions

Pressure 29.95 in
Visibility 10.0 miles
Clouds Few 3100 ft
Mostly Cloudy 4300 ft
Overcast 5000 ft
Dew Point 57 °F
Humidity 93%
Rainfall 0.20 in
Snow Depth Not available.
UV 0 out of 12
Pollen 7.80 out of 12
Air Quality Not available.
Flu Activity Not available.
METAR KYKN 020355Z AUTO 28008KT 10SM FEW031 BKN043 OVC050 15/13 A2995 RMK AO1 LTG DSNT SE P0003

More Conditions Fewer Conditions

10-Day Weather Forecast

Almanac

Astronomy

Sep. 01, 2014 Rise Set
Actual Time 6:55 AM CDT 8:06 PM CDT
Civil Twilight 6:26 AM CDT 8:35 PM CDT
Nautical Twilight 5:51 AM CDT 9:10 PM CDT
Astronomical Twilight 5:13 AM CDT 9:47 PM CDT
Moon 1:53 PM CDT (9/1) 11:57 PM CDT (9/1)
Length of Visible Light 14h 09m
Length of Day
13h 10m
Tomorrow will be 2m 51s shorter.
Waxing Crescent, 47% of the Moon is Illuminated
Sep 2
Waxing Crescent
Sep 2
First Quarter
Sep 8
Full
Sep 15
Last Quarter
Sep 24
New

Today's Extremes

State Highs State Lows

Community

WunderPhotos

Upload Photos

1,749,558 photos uploaded!

WunderBlogs® & News

Nearby

Snow Depth

Station Depth Elevation
North Rapid Creek 0 in 6130 ft
Blind Park 0 in 6890 ft

Earthquake Activity

City Distance Mag. Time & Date
No recent earthquake activity has been reported nearby.
Minimum magnitude displayed is 2.5.

Coastal Water Temperatures

Place Temperature
No Stations Reporting

Nearby Weather Stations